createdAt,value
2023-04-05T00:00:42.927Z,4.08
2023-04-05T00:05:45.904Z,4.09
2023-04-05T00:10:47.373Z,4.06
2023-04-05T00:15:49.913Z,4.00
2023-04-05T00:20:51.851Z,3.96
2023-04-05T00:25:53.393Z,3.92
2023-04-05T00:30:54.976Z,3.88
2023-04-05T00:35:56.478Z,3.84
2023-04-05T00:40:57.982Z,3.82
2023-04-05T00:46:00.265Z,3.79
2023-04-05T00:51:02.639Z,3.76
2023-04-05T00:56:04.451Z,3.76
2023-04-05T01:01:20.537Z,3.67
2023-04-05T01:06:27.947Z,3.74
2023-04-05T01:11:32.377Z,3.69
2023-04-05T01:16:33.896Z,3.70
2023-04-05T01:21:38.027Z,3.69
2023-04-05T01:27:06.958Z,3.67
2023-04-05T01:32:17.616Z,3.60
2023-04-05T01:37:22.772Z,3.58
2023-04-05T01:42:25.943Z,3.54
2023-04-05T01:47:27.503Z,3.50
2023-04-05T01:52:29.036Z,3.51
2023-04-05T01:57:30.608Z,3.54
2023-04-05T02:02:32.136Z,3.49
2023-04-05T02:07:33.641Z,3.47
2023-04-05T02:12:35.287Z,3.43
2023-04-05T02:17:39.979Z,3.39
2023-04-05T02:22:45.439Z,3.35
2023-04-05T02:27:47.796Z,3.34
2023-04-05T02:32:49.389Z,3.28
2023-04-05T02:37:50.974Z,3.29
2023-04-05T02:42:52.470Z,3.21
2023-04-05T02:47:55.231Z,3.09
2023-04-05T02:52:56.897Z,3.08
2023-04-05T02:58:00.843Z,3.02
2023-04-05T03:03:02.394Z,2.97
2023-04-05T03:08:04.119Z,2.99
2023-04-05T03:13:05.679Z,2.99
2023-04-05T03:18:07.235Z,2.98
2023-04-05T03:23:09.449Z,3.01
2023-04-05T03:28:10.932Z,3.06
2023-04-05T03:33:12.533Z,3.13
2023-04-05T03:38:14.571Z,3.15
2023-04-05T03:43:16.807Z,3.15
2023-04-05T03:48:20.312Z,3.22
2023-04-05T03:53:21.869Z,3.28
2023-04-05T03:58:23.410Z,3.30
2023-04-05T04:03:26.094Z,3.35
2023-04-05T04:08:27.616Z,3.31
2023-04-05T04:13:29.227Z,3.33
2023-04-05T04:18:30.778Z,3.37
2023-04-05T04:23:34.421Z,3.37
2023-04-05T04:28:38.747Z,3.37
2023-04-05T04:33:40.321Z,3.27
2023-04-05T04:38:42.934Z,3.17
2023-04-05T04:43:44.678Z,3.05
2023-04-05T04:48:47.263Z,3.09
2023-04-05T04:53:48.804Z,3.14
2023-04-05T04:58:50.404Z,3.28
2023-04-05T05:03:52.257Z,3.33
2023-04-05T05:08:54.442Z,3.32
2023-04-05T05:13:55.974Z,3.37
2023-04-05T05:18:57.518Z,3.38
2023-04-05T05:23:58.985Z,3.38
2023-04-05T05:29:02.157Z,3.35
2023-04-05T05:34:03.679Z,3.30
2023-04-05T05:39:05.939Z,3.28
2023-04-05T05:44:07.408Z,3.33
2023-04-05T05:49:09.079Z,3.35
2023-04-05T05:54:10.638Z,3.47
2023-04-05T05:59:13.418Z,3.62
2023-04-05T06:04:15.148Z,3.72
2023-04-05T06:09:16.929Z,3.84
2023-04-05T06:14:18.753Z,3.92
2023-04-05T06:19:20.495Z,3.97
2023-04-05T06:24:21.999Z,3.92
2023-04-05T06:29:23.592Z,3.99
2023-04-05T06:34:25.101Z,4.07
2023-04-05T06:39:26.589Z,4.06
2023-04-05T06:44:28.084Z,4.08
2023-04-05T06:49:29.544Z,4.25
2023-04-05T06:54:31.226Z,4.52
2023-04-05T06:59:33.121Z,4.96
2023-04-05T07:04:36.931Z,5.24
2023-04-05T07:09:39.915Z,5.46
2023-04-05T07:14:41.477Z,5.70
2023-04-05T07:19:43.309Z,5.90
2023-04-05T07:24:46.139Z,6.07
2023-04-05T07:29:48.365Z,6.06
2023-04-05T07:34:49.876Z,6.09
2023-04-05T07:39:51.564Z,6.20
2023-04-05T07:44:53.141Z,6.26
2023-04-05T07:49:54.892Z,6.24
2023-04-05T07:54:56.788Z,6.26
2023-04-05T07:59:58.343Z,6.45
2023-04-05T08:05:00.003Z,6.64
2023-04-05T08:10:01.682Z,6.63
2023-04-05T08:15:03.836Z,6.72
2023-04-05T08:20:06.038Z,6.85
2023-04-05T08:25:08.353Z,6.63
2023-04-05T08:30:10.626Z,6.78
2023-04-05T08:35:14.807Z,6.81
2023-04-05T08:40:16.427Z,6.78
2023-04-05T08:45:19.412Z,6.86
2023-04-05T08:50:21.937Z,7.04
2023-04-05T08:55:24.821Z,7.33
2023-04-05T09:00:27.794Z,7.26
2023-04-05T09:05:30.836Z,7.34
2023-04-05T09:10:32.673Z,7.50
2023-04-05T09:15:36.292Z,7.69
2023-04-05T09:20:38.222Z,7.60
2023-04-05T09:25:42.486Z,7.71
2023-04-05T09:30:47.753Z,7.82
2023-04-05T09:35:51.255Z,7.94
2023-04-05T09:40:52.796Z,7.95
2023-04-05T09:45:54.363Z,8.05
2023-04-05T09:51:12.546Z,8.11
2023-04-05T09:56:14.979Z,8.26
2023-04-05T10:01:17.469Z,8.37
2023-04-05T10:06:19.403Z,8.39
2023-04-05T10:11:21.807Z,8.50
2023-04-05T10:16:28.486Z,8.59
2023-04-05T10:21:33.646Z,8.69
2023-04-05T10:26:49.364Z,8.76
2023-04-05T10:31:59.340Z,8.74
2023-04-05T10:37:02.096Z,8.65
2023-04-05T10:42:27.517Z,8.54
2023-04-05T10:47:32.204Z,8.50
2023-04-05T10:52:34.378Z,8.46
2023-04-05T10:57:37.505Z,8.60
2023-04-05T11:02:39.628Z,8.46
2023-04-05T11:07:45.900Z,8.51
2023-04-05T11:12:47.367Z,8.53
2023-04-05T11:18:05.551Z,8.72
2023-04-05T11:23:07.351Z,8.64
2023-04-05T11:28:09.220Z,8.42
2023-04-05T11:33:10.807Z,8.67
2023-04-05T11:38:22.132Z,8.76
2023-04-05T11:43:30.104Z,8.70
2023-04-05T11:48:31.592Z,8.62
2023-04-05T11:53:33.067Z,8.85
2023-04-05T11:58:34.529Z,8.88
2023-04-05T12:03:37.442Z,8.82
2023-04-05T12:08:49.951Z,8.74
2023-04-05T12:13:59.059Z,8.62
2023-04-05T12:19:00.941Z,8.55
2023-04-05T12:24:02.593Z,8.59
2023-04-05T12:29:04.494Z,8.64
2023-04-05T12:34:06.346Z,8.71
2023-04-05T12:39:09.968Z,8.55
2023-04-05T12:44:15.194Z,8.02
2023-04-05T12:49:17.929Z,8.24
2023-04-05T12:54:23.660Z,8.44
2023-04-05T12:59:25.347Z,8.40
2023-04-05T13:04:26.886Z,8.47
2023-04-05T13:09:28.411Z,8.45
2023-04-05T13:14:30.006Z,8.33
2023-04-05T13:19:31.556Z,8.26
2023-04-05T13:24:33.066Z,8.44
2023-04-05T13:29:34.598Z,8.39
2023-04-05T13:34:36.130Z,8.32
2023-04-05T13:39:37.636Z,8.19
2023-04-05T13:44:39.280Z,8.09
2023-04-05T13:49:41.078Z,8.15
2023-04-05T13:54:42.938Z,8.21
2023-04-05T13:59:44.582Z,8.18
2023-04-05T14:04:46.436Z,8.19
2023-04-05T14:09:48.009Z,8.28
2023-04-05T14:14:49.551Z,8.25
2023-04-05T14:19:51.029Z,8.22
2023-04-05T14:24:52.646Z,8.25
2023-04-05T14:29:57.098Z,8.29
2023-04-05T14:34:58.825Z,8.22
2023-04-05T14:40:00.310Z,8.22
2023-04-05T14:45:01.991Z,8.18
2023-04-05T14:56:19.027Z,8.23
2023-04-05T15:01:20.703Z,8.16
2023-04-05T15:06:22.303Z,8.13
2023-04-05T15:11:23.822Z,8.05
2023-04-05T15:16:25.428Z,8.07
2023-04-05T15:21:27.278Z,8.14
2023-04-05T15:26:28.880Z,8.10
2023-04-05T15:31:33.703Z,8.11
2023-04-05T15:36:36.057Z,8.17
2023-04-05T15:41:37.752Z,8.20
2023-04-05T15:46:39.313Z,8.26
2023-04-05T15:51:40.880Z,8.33
2023-04-05T15:56:42.973Z,8.31
2023-04-05T16:01:44.706Z,8.31
2023-04-05T16:06:46.676Z,8.31
2023-04-05T16:11:48.262Z,8.36
2023-04-05T16:16:53.703Z,8.48
2023-04-05T16:21:55.966Z,8.47
2023-04-05T16:26:58.097Z,8.46
2023-04-05T16:31:59.781Z,8.39
2023-04-05T16:37:01.309Z,8.36
2023-04-05T16:42:02.810Z,8.33
2023-04-05T16:47:04.298Z,8.36
2023-04-05T16:52:06.006Z,8.36
2023-04-05T16:57:07.562Z,8.41
2023-04-05T17:02:09.258Z,8.40
2023-04-05T17:07:10.876Z,8.40
2023-04-05T17:12:12.548Z,8.34
2023-04-05T17:17:14.026Z,8.25
2023-04-05T17:22:15.664Z,8.23
2023-04-05T17:27:17.138Z,8.19
2023-04-05T17:32:18.695Z,8.23
2023-04-05T17:37:20.404Z,8.20
2023-04-05T17:42:21.885Z,8.09
2023-04-05T17:47:23.468Z,8.05
2023-04-05T17:52:24.995Z,8.02
2023-04-05T17:57:26.563Z,7.97
2023-04-05T18:02:28.429Z,7.94
2023-04-05T18:07:30.484Z,7.91
2023-04-05T18:12:33.080Z,7.89
2023-04-05T18:17:34.655Z,7.78
2023-04-05T18:22:36.332Z,7.72
2023-04-05T18:27:39.006Z,7.63
2023-04-05T18:32:43.336Z,7.62
2023-04-05T18:37:44.831Z,7.47
2023-04-05T18:42:46.495Z,7.26
2023-04-05T18:47:48.091Z,7.08
2023-04-05T18:52:49.600Z,6.89
2023-04-05T18:57:51.312Z,6.72
2023-04-05T19:02:52.957Z,6.53
2023-04-05T19:07:54.496Z,6.39
2023-04-05T19:12:56.075Z,6.20
2023-04-05T19:17:58.231Z,6.08
2023-04-05T19:22:59.840Z,5.97
2023-04-05T19:28:01.525Z,5.89
2023-04-05T19:33:03.064Z,5.80
2023-04-05T19:38:04.956Z,5.74
2023-04-05T19:43:06.533Z,5.68
2023-04-05T19:48:41.186Z,5.58
2023-04-05T19:53:50.261Z,5.53
2023-04-05T19:59:03.625Z,5.55
2023-04-05T20:04:17.023Z,5.62
2023-04-05T20:09:20.193Z,6.05
2023-04-05T20:14:28.167Z,6.34
2023-04-05T20:19:31.501Z,6.57
2023-04-05T20:24:33.607Z,6.74
2023-04-05T20:29:36.185Z,6.86
2023-04-05T20:34:43.722Z,6.90
2023-04-05T20:39:45.365Z,6.81
2023-04-05T20:44:47.907Z,6.80
2023-04-05T20:49:50.306Z,6.77
2023-04-05T20:54:52.237Z,6.78
2023-04-05T20:59:53.898Z,6.74
2023-04-05T21:04:55.601Z,6.72
2023-04-05T21:09:57.135Z,6.80
2023-04-05T21:15:00.313Z,6.88
2023-04-05T21:20:02.063Z,6.89
2023-04-05T21:25:05.894Z,6.86
2023-04-05T21:30:07.975Z,6.89
2023-04-05T21:35:10.000Z,6.83
2023-04-05T21:40:11.970Z,6.78
2023-04-05T21:45:13.625Z,6.66
2023-04-05T21:50:15.339Z,6.58
2023-04-05T21:55:17.192Z,6.53
2023-04-05T22:00:19.022Z,6.54
2023-04-05T22:05:33.954Z,6.53
2023-04-05T22:10:39.305Z,6.48
2023-04-05T22:15:40.935Z,6.42
2023-04-05T22:20:42.440Z,6.36
2023-04-05T22:25:43.940Z,6.40
2023-04-05T22:30:45.478Z,6.36
2023-04-05T22:35:47.111Z,6.36
2023-04-05T22:40:48.836Z,6.32
2023-04-05T22:45:52.025Z,6.30
2023-04-05T22:50:53.667Z,6.26
2023-04-05T22:55:55.380Z,6.20
2023-04-05T23:00:56.901Z,6.14
2023-04-05T23:05:58.426Z,6.12
2023-04-05T23:10:59.890Z,6.02
2023-04-05T23:16:01.680Z,5.98
2023-04-05T23:21:03.351Z,5.89
2023-04-05T23:26:04.883Z,5.88
2023-04-05T23:31:06.417Z,5.85
2023-04-05T23:36:08.618Z,5.74
2023-04-05T23:41:10.189Z,5.74
2023-04-05T23:46:11.717Z,5.74
2023-04-05T23:51:13.221Z,5.73
2023-04-05T23:56:14.980Z,5.70
